Historyczne dane pomiarowe

Dodano dane terminowe – wersja testowa.

Dane z okresu 1951-2019

Wersja bazy: 1.34 [2019-03-16, lista zmian], aktualizacja planowana na 2019-04-15

Dane meteo z obszaru Polski uzyskane na podstawie danych udostępnionych przez Instytut Meteorologii i Gospodarki Wodnej – Państwowy Instytut Badawczy.

 

Wybierz Datę:    

       

TemperaturaWilgotnośćWiatrCiśnienieOpadyŚniegCzas trwania zjawisk
 Stacja t tx tn tng RH VA  wxwx mslp ppp RRR   cm mm wxwxwxwxwxwxwx
2006-05-15 11.7 18.3 4.8 0.2--- 0.7---- 2.0------------
2006-05-16 14.7 22.7 8.8 5.3--- 1.3---- 0.0------------
2006-05-17 14.0 16.2 11.0 9.1--- 0.7---- 0.5------------
2006-05-18 13.2 19.7 5.4 5.4--- 1.7---- 4.4------------
2006-05-19 14.4 19.7 10.8 6.8--- 1.3---- 4.6------------
2006-05-20 14.3 20.7 10.4 9.1--- 1.0---- 5.4------------
2006-05-21 12.7 16.2 9.1 9.1--- 2.7---- 0.3------------
2006-05-22 18.3 25.7 10.4 7.2--- 1.7---- 3.1------------
2006-05-23 16.4 21.5 13.3 12.5--- 3.0---- 0.0------------
2006-05-24 13.1 17.7 8.1 5.8--- 1.0---- 0.0------------
2006-05-25 11.1 15.6 7.1 4.4--- 1.7---- 6.5------------
2006-05-26 11.4 15.2 8.6 7.6--- 2.0---- 0.0------------
2006-05-27 12.2 15.6 7.5 6.0--- 1.3---- 4.5------------
2006-05-28 12.5 17.1 9.5 9.5--- 4.3---- 11.5------------
2006-05-29 12.0 16.2 8.9 7.7--- 2.7---- 0.4------------
2006-05-30 10.7 15.7 6.4 4.4--- 2.0---- 0.0------------
2006-05-31 10.7 14.7 6.8 4.9--- 1.7---- 8.5------------
2006-06-01 10.6 14.9 7.3 4.9--- 1.7---- 0.0------------
2006-06-02 11.8 19.2 2.6 1.6--- 1.3---- 0.0------------
2006-06-03 12.9 19.8 7.4 2.5--- 1.7---- 0.6------------
2006-06-04 12.1 14.7 9.9 9.6--- 3.3---- 0.0------------
2006-06-05 10.9 14.7 7.7 6.8--- 1.0---- 4.3------------
2006-06-06 12.3 17.7 6.8 5.3--- 0.0---- 3.0------------
2006-06-07 12.2 19.1 4.5 3.0--- 0.3---- 0.0------------
2006-06-08 14.9 20.7 5.9 4.9--- 0.0---- 0.0------------
2006-06-09 15.9 22.7 7.8 6.3--- 1.0---- 0.0------------
2006-06-10 16.2 22.0 7.9 7.0--- 3.0---- 0.0------------
2006-06-11 19.0 28.1 7.9 6.3--- 0.7---- 0.0------------
2006-06-12 21.5 29.3 10.4 8.6--- 0.3---- 0.0------------
2006-06-13 23.3 29.1 19.0 9.8--- 1.3---- 0.0------------
220.1 ms

 

Źródłem pochodzenia danych jest Instytut Meteorologii i Gospodarki Wodnej – Państwowy Instytut Badawczy. Dane Instytutu Meteorologii i Gospodarki Wodnej – Państwowego Instytutu Badawczego zostały przetworzone.

Dane źródłowe można odnaleźć na stronie https://dane.imgw.pl